Terminal Aerodrome Forecast
Issued by NWS Jackson, MS

Home | Current Version | Previous Version | Text Only | Print | Product List | Glossary On
Versions: 1 2 3 4 5 6 7 8 9 10 11 12 13 14 15 16
000
FTUS44 KJAN 251836
TAFHBG
TAF
KHBG 251836Z 2518/2618 28009G15KT P6SM SKC
     FM252000 21004KT P6SM SKC
     FM261500 20014G20KT P6SM FEW250=

USA.gov is the U.S. government's official web portal to all federal, state and local government web resources and services.